Wetterdaten: Donnerstag, 04.01.2018
Datum Zeit Temp. I. Temp. A. Boden 5 cm Feuchte A. Sonne Luftdruck Regen Wind Sonnenschein
04.01.2018 00:00 22,0 C 6,4 C 6,1 C 64 % 19 % 1007 hPa 0,0 l/m 34,0 km/h (5 Bft) 0 min
04.01.2018 00:03 22,0 C 6,4 C 6,2 C 64 % 19 % 1007 hPa 0,0 l/m 32,0 km/h (5 Bft) 0 min
04.01.2018 00:06 22,0 C 6,3 C 6,2 C 64 % 19 % 1007 hPa 0,0 l/m 32,0 km/h (5 Bft) 0 min
04.01.2018 00:09 22,0 C 6,3 C 6,1 C 64 % 19 % 1007 hPa 0,0 l/m 28,3 km/h (4 Bft) 0 min
04.01.2018 00:12 22,0 C 6,3 C 6,2 C 64 % 19 % 1007 hPa 0,0 l/m 30,2 km/h (5 Bft) 0 min
04.01.2018 00:15 22,0 C 6,4 C 6,2 C 64 % 19 % 1007 hPa 0,0 l/m 35,5 km/h (5 Bft) 0 min
04.01.2018 00:18 22,0 C 6,4 C 6,2 C 63 % 19 % 1007 hPa 0,0 l/m 33,0 km/h (5 Bft) 0 min
04.01.2018 00:21 22,0 C 6,4 C 6,2 C 64 % 19 % 1007 hPa 0,0 l/m 31,8 km/h (5 Bft) 0 min
04.01.2018 00:24 22,0 C 6,3 C 6,2 C 64 % 19 % 1007 hPa 0,0 l/m 32,1 km/h (5 Bft) 0 min
04.01.2018 00:27 22,0 C 6,4 C 6,3 C 63 % 19 % 1006 hPa 0,0 l/m 39,6 km/h (6 Bft) 0 min
04.01.2018 00:30 22,0 C 6,4 C 6,3 C 63 % 19 % 1007 hPa 0,0 l/m 33,0 km/h (5 Bft) 0 min
04.01.2018 00:33 22,0 C 6,4 C 6,3 C 63 % 19 % 1006 hPa 0,0 l/m 33,0 km/h (5 Bft) 0 min
04.01.2018 00:36 22,0 C 6,4 C 6,3 C 63 % 19 % 1007 hPa 0,0 l/m 36,4 km/h (5 Bft) 0 min
04.01.2018 00:39 22,0 C 6,3 C 6,2 C 64 % 19 % 1007 hPa 0,0 l/m 23,1 km/h (4 Bft) 0 min
04.01.2018 00:42 22,0 C 6,3 C 6,2 C 64 % 19 % 1007 hPa 0,0 l/m 23,6 km/h (4 Bft) 0 min
04.01.2018 00:45 22,0 C 6,4 C 6,2 C 64 % 19 % 1007 hPa 0,0 l/m 33,6 km/h (5 Bft) 0 min
04.01.2018 00:50 22,0 C 6,3 C 6,2 C 64 % 19 % 1007 hPa 0,0 l/m 26,1 km/h (4 Bft) 0 min
04.01.2018 00:53 22,0 C 6,3 C 6,2 C 64 % 19 % 1007 hPa 0,0 l/m 18,9 km/h (3 Bft) 0 min
04.01.2018 00:56 22,0 C 6,3 C 6,2 C 64 % 19 % 1007 hPa 0,0 l/m 31,6 km/h (5 Bft) 0 min
04.01.2018 00:59 22,0 C 6,3 C 6,2 C 64 % 19 % 1007 hPa 0,0 l/m 16,1 km/h (3 Bft) 0 min
04.01.2018 01:02 22,0 C 6,4 C 6,2 C 64 % 19 % 1007 hPa 0,0 l/m 26,1 km/h (4 Bft) 0 min
04.01.2018 01:05 22,0 C 6,4 C 6,2 C 64 % 19 % 1007 hPa 0,0 l/m 26,1 km/h (4 Bft) 0 min
04.01.2018 01:08 22,0 C 6,2 C 6,1 C 65 % 19 % 1007 hPa 0,0 l/m 20,2 km/h (4 Bft) 0 min
04.01.2018 01:11 22,0 C 6,4 C 6,3 C 63 % 19 % 1007 hPa 0,0 l/m 37,4 km/h (5 Bft) 0 min
04.01.2018 01:14 22,0 C 6,3 C 6,2 C 64 % 19 % 1007 hPa 0,0 l/m 31,3 km/h (5 Bft) 0 min
04.01.2018 01:17 22,0 C 6,3 C 6,2 C 64 % 19 % 1007 hPa 0,0 l/m 26,2 km/h (4 Bft) 0 min
04.01.2018 01:21 22,0 C 6,3 C 6,2 C 64 % 19 % 1007 hPa 0,0 l/m 30,2 km/h (5 Bft) 0 min
04.01.2018 01:24 22,0 C 6,4 C 6,2 C 64 % 19 % 1007 hPa 0,0 l/m 31,7 km/h (5 Bft) 0 min
04.01.2018 01:27 22,0 C 6,3 C 6,2 C 64 % 19 % 1007 hPa 0,0 l/m 19,5 km/h (3 Bft) 0 min
04.01.2018 01:30 22,0 C 6,3 C 6,1 C 64 % 19 % 1007 hPa 0,0 l/m 24,7 km/h (4 Bft) 0 min
04.01.2018 01:33 22,0 C 6,2 C 6,1 C 64 % 19 % 1007 hPa 0,0 l/m 24,7 km/h (4 Bft) 0 min
04.01.2018 01:36 22,0 C 6,4 C 6,2 C 64 % 19 % 1007 hPa 0,0 l/m 20,3 km/h (4 Bft) 0 min
04.01.2018 01:39 22,0 C 6,2 C 6,2 C 64 % 19 % 1007 hPa 0,0 l/m 20,3 km/h (4 Bft) 0 min
04.01.2018 01:42 22,0 C 6,1 C 6,1 C 64 % 19 % 1007 hPa 0,0 l/m 21,1 km/h (4 Bft) 0 min
04.01.2018 01:45 22,0 C 6,0 C 6,1 C 64 % 19 % 1006 hPa 0,0 l/m 28,3 km/h (4 Bft) 0 min
04.01.2018 01:48 22,0 C 6,1 C 6,1 C 64 % 19 % 1007 hPa 0,0 l/m 28,6 km/h (4 Bft) 0 min
04.01.2018 01:51 22,0 C 6,1 C 6,0 C 64 % 19 % 1007 hPa 0,0 l/m 26,7 km/h (4 Bft) 0 min
04.01.2018 01:54 22,0 C 6,0 C 6,1 C 64 % 19 % 1007 hPa 0,0 l/m 26,7 km/h (4 Bft) 0 min
04.01.2018 01:57 22,0 C 6,0 C 6,1 C 64 % 19 % 1007 hPa 0,0 l/m 34,4 km/h (5 Bft) 0 min
04.01.2018 02:00 22,0 C 5,9 C 5,9 C 65 % 19 % 1007 hPa 0,0 l/m 22,4 km/h (4 Bft) 0 min
04.01.2018 02:03 22,0 C 5,9 C 5,8 C 65 % 19 % 1007 hPa 0,0 l/m 21,7 km/h (4 Bft) 0 min
04.01.2018 02:06 22,0 C 5,9 C 5,9 C 65 % 19 % 1007 hPa 0,0 l/m 32,9 km/h (5 Bft) 0 min
04.01.2018 02:09 22,0 C 5,9 C 5,9 C 64 % 19 % 1007 hPa 0,0 l/m 25,6 km/h (4 Bft) 0 min
04.01.2018 02:12 22,0 C 5,9 C 6,0 C 64 % 19 % 1007 hPa 0,0 l/m 28,6 km/h (4 Bft) 0 min
04.01.2018 02:15 21,9 C 6,0 C 6,0 C 64 % 19 % 1007 hPa 0,0 l/m 29,5 km/h (5 Bft) 0 min
04.01.2018 02:18 21,9 C 6,0 C 6,0 C 64 % 19 % 1007 hPa 0,0 l/m 23,8 km/h (4 Bft) 0 min
04.01.2018 02:21 22,0 C 6,0 C 6,0 C 64 % 19 % 1007 hPa 0,0 l/m 19,6 km/h (3 Bft) 0 min
04.01.2018 02:24 21,9 C 6,0 C 5,8 C 65 % 19 % 1007 hPa 0,0 l/m 21,3 km/h (4 Bft) 0 min
04.01.2018 02:27 21,9 C 6,0 C 6,0 C 65 % 19 % 1007 hPa 0,0 l/m 23,5 km/h (4 Bft) 0 min
04.01.2018 02:30 21,9 C 5,9 C 5,9 C 65 % 19 % 1007 hPa 0,0 l/m 22,8 km/h (4 Bft) 0 min
04.01.2018 02:33 21,9 C 5,9 C 5,8 C 65 % 19 % 1007 hPa 0,0 l/m 27,4 km/h (4 Bft) 0 min
04.01.2018 02:36 22,0 C 6,0 C 6,0 C 64 % 19 % 1007 hPa 0,0 l/m 24,8 km/h (4 Bft) 0 min
04.01.2018 02:39 21,9 C 6,0 C 5,9 C 64 % 19 % 1007 hPa 0,0 l/m 19,3 km/h (3 Bft) 0 min
04.01.2018 02:42 21,9 C 6,0 C 6,1 C 64 % 19 % 1007 hPa 0,0 l/m 24,9 km/h (4 Bft) 0 min
04.01.2018 02:45 22,0 C 6,1 C 6,1 C 64 % 19 % 1007 hPa 0,0 l/m 27,4 km/h (4 Bft) 0 min
04.01.2018 02:48 22,0 C 6,1 C 6,0 C 64 % 19 % 1007 hPa 0,0 l/m 20,5 km/h (4 Bft) 0 min
04.01.2018 02:51 21,9 C 6,1 C 6,0 C 64 % 19 % 1007 hPa 0,0 l/m 29,7 km/h (5 Bft) 0 min
04.01.2018 02:54 22,0 C 6,1 C 6,0 C 64 % 19 % 1007 hPa 0,0 l/m 18,1 km/h (3 Bft) 0 min
04.01.2018 02:57 22,0 C 6,2 C 6,2 C 63 % 19 % 1007 hPa 0,0 l/m 35,5 km/h (5 Bft) 0 min
04.01.2018 03:00 21,9 C 6,2 C 6,0 C 63 % 19 % 1007 hPa 0,0 l/m 32,1 km/h (5 Bft) 0 min
04.01.2018 03:03 21,9 C 6,2 C 6,0 C 64 % 19 % 1007 hPa 0,0 l/m 32,1 km/h (5 Bft) 0 min
04.01.2018 03:06 21,9 C 6,2 C 6,0 C 64 % 19 % 1007 hPa 0,0 l/m 24,0 km/h (4 Bft) 0 min
04.01.2018 03:09 21,9 C 6,2 C 6,1 C 64 % 19 % 1007 hPa 0,0 l/m 22,4 km/h (4 Bft) 0 min
04.01.2018 03:12 22,0 C 6,2 C 6,1 C 64 % 19 % 1007 hPa 0,0 l/m 26,3 km/h (4 Bft) 0 min
04.01.2018 03:15 21,9 C 6,3 C 6,2 C 64 % 19 % 1007 hPa 0,0 l/m 36,4 km/h (5 Bft) 0 min
04.01.2018 03:18 21,9 C 6,3 C 6,2 C 64 % 19 % 1007 hPa 0,0 l/m 24,7 km/h (4 Bft) 0 min
04.01.2018 03:21 21,9 C 6,2 C 6,1 C 64 % 19 % 1007 hPa 0,0 l/m 24,7 km/h (4 Bft) 0 min
04.01.2018 03:24 21,9 C 6,2 C 6,2 C 64 % 19 % 1007 hPa 0,0 l/m 25,3 km/h (4 Bft) 0 min
04.01.2018 03:27 21,9 C 6,2 C 6,2 C 65 % 19 % 1007 hPa 0,0 l/m 24,6 km/h (4 Bft) 0 min
04.01.2018 03:30 21,9 C 6,2 C 6,1 C 65 % 19 % 1007 hPa 0,0 l/m 24,0 km/h (4 Bft) 0 min
04.01.2018 03:33 21,9 C 6,2 C 6,1 C 65 % 19 % 1007 hPa 0,0 l/m 24,3 km/h (4 Bft) 0 min
04.01.2018 03:36 21,9 C 6,2 C 6,1 C 65 % 19 % 1007 hPa 0,0 l/m 23,5 km/h (4 Bft) 0 min
04.01.2018 03:39 21,9 C 6,2 C 6,1 C 65 % 19 % 1007 hPa 0,0 l/m 23,5 km/h (4 Bft) 0 min
04.01.2018 03:42 21,9 C 6,2 C 6,1 C 65 % 19 % 1007 hPa 0,0 l/m 18,1 km/h (3 Bft) 0 min
04.01.2018 03:45 22,0 C 6,0 C 6,0 C 66 % 19 % 1007 hPa 0,0 l/m 19,7 km/h (3 Bft) 0 min
04.01.2018 03:48 22,0 C 6,0 C 6,1 C 66 % 19 % 1007 hPa 0,0 l/m 23,1 km/h (4 Bft) 0 min
04.01.2018 03:51 21,9 C 6,2 C 6,2 C 65 % 19 % 1007 hPa 0,0 l/m 25,3 km/h (4 Bft) 0 min
04.01.2018 03:54 21,9 C 6,1 C 6,1 C 66 % 19 % 1007 hPa 0,0 l/m 21,8 km/h (4 Bft) 0 min
04.01.2018 03:57 21,9 C 6,1 C 6,1 C 65 % 19 % 1007 hPa 0,0 l/m 29,9 km/h (5 Bft) 0 min
04.01.2018 04:00 21,9 C 6,1 C 6,1 C 65 % 19 % 1007 hPa 0,0 l/m 16,5 km/h (3 Bft) 0 min
04.01.2018 04:03 21,9 C 6,1 C 6,1 C 65 % 19 % 1007 hPa 0,0 l/m 16,5 km/h (3 Bft) 0 min
04.01.2018 04:06 21,9 C 6,0 C 5,9 C 66 % 19 % 1007 hPa 0,0 l/m 14,0 km/h (3 Bft) 0 min
04.01.2018 04:09 21,9 C 5,9 C 5,9 C 66 % 19 % 1007 hPa 0,0 l/m 13,5 km/h (3 Bft) 0 min
04.01.2018 04:12 21,9 C 5,9 C 5,9 C 67 % 19 % 1007 hPa 0,0 l/m 16,6 km/h (3 Bft) 0 min
04.01.2018 04:15 21,9 C 5,9 C 6,0 C 67 % 19 % 1007 hPa 0,0 l/m 19,0 km/h (3 Bft) 0 min
04.01.2018 04:18 21,9 C 6,0 C 6,0 C 66 % 19 % 1007 hPa 0,0 l/m 17,0 km/h (3 Bft) 0 min
04.01.2018 04:21 21,9 C 5,9 C 6,0 C 66 % 19 % 1007 hPa 0,0 l/m 20,5 km/h (4 Bft) 0 min
04.01.2018 04:24 21,9 C 5,8 C 5,9 C 67 % 19 % 1007 hPa 0,0 l/m 23,4 km/h (4 Bft) 0 min
04.01.2018 04:27 21,9 C 5,9 C 5,9 C 66 % 19 % 1007 hPa 0,0 l/m 20,6 km/h (4 Bft) 0 min
04.01.2018 04:30 21,9 C 5,9 C 5,9 C 66 % 19 % 1006 hPa 0,0 l/m 18,8 km/h (3 Bft) 0 min
04.01.2018 04:33 21,9 C 5,8 C 6,0 C 67 % 19 % 1006 hPa 0,0 l/m 18,5 km/h (3 Bft) 0 min
04.01.2018 04:36 21,9 C 5,9 C 6,1 C 67 % 19 % 1006 hPa 0,0 l/m 33,5 km/h (5 Bft) 0 min
04.01.2018 04:39 21,9 C 6,0 C 6,0 C 66 % 19 % 1006 hPa 0,0 l/m 28,0 km/h (4 Bft) 0 min
04.01.2018 04:42 21,9 C 5,9 C 5,9 C 66 % 19 % 1006 hPa 0,0 l/m 28,0 km/h (4 Bft) 0 min
04.01.2018 04:45 21,9 C 5,9 C 6,0 C 66 % 19 % 1006 hPa 0,0 l/m 21,6 km/h (4 Bft) 0 min
04.01.2018 04:48 21,9 C 5,9 C 6,0 C 66 % 19 % 1006 hPa 0,0 l/m 21,5 km/h (4 Bft) 0 min
04.01.2018 04:51 21,9 C 6,0 C 6,0 C 66 % 19 % 1007 hPa 0,0 l/m 26,6 km/h (4 Bft) 0 min
04.01.2018 04:54 21,9 C 6,0 C 6,1 C 66 % 19 % 1007 hPa 0,0 l/m 21,8 km/h (4 Bft) 0 min
04.01.2018 04:57 21,9 C 6,1 C 6,0 C 65 % 19 % 1007 hPa 0,0 l/m 32,5 km/h (5 Bft) 0 min
04.01.2018 05:00 21,9 C 6,0 C 6,0 C 66 % 19 % 1007 hPa 0,0 l/m 32,5 km/h (5 Bft) 0 min
04.01.2018 05:03 21,9 C 6,0 C 6,0 C 66 % 19 % 1007 hPa 0,0 l/m 17,6 km/h (3 Bft) 0 min
04.01.2018 05:06 21,9 C 6,0 C 6,0 C 66 % 19 % 1007 hPa 0,0 l/m 21,3 km/h (4 Bft) 0 min
04.01.2018 05:09 21,9 C 6,0 C 6,1 C 66 % 19 % 1007 hPa 0,0 l/m 25,4 km/h (4 Bft) 0 min
04.01.2018 05:12 21,9 C 6,0 C 6,0 C 66 % 19 % 1007 hPa 0,0 l/m 23,0 km/h (4 Bft) 0 min
04.01.2018 05:15 21,9 C 6,0 C 6,0 C 66 % 19 % 1007 hPa 0,0 l/m 19,1 km/h (3 Bft) 0 min
04.01.2018 05:18 21,9 C 6,0 C 6,1 C 66 % 19 % 1007 hPa 0,0 l/m 26,0 km/h (4 Bft) 0 min
04.01.2018 05:21 21,9 C 6,0 C 6,0 C 66 % 19 % 1007 hPa 0,0 l/m 26,0 km/h (4 Bft) 0 min
04.01.2018 05:24 21,9 C 6,0 C 6,0 C 66 % 19 % 1007 hPa 0,0 l/m 16,8 km/h (3 Bft) 0 min
04.01.2018 05:27 21,9 C 6,0 C 6,1 C 66 % 19 % 1007 hPa 0,0 l/m 22,8 km/h (4 Bft) 0 min
04.01.2018 05:30 21,9 C 6,1 C 6,1 C 66 % 19 % 1007 hPa 0,0 l/m 23,3 km/h (4 Bft) 0 min
04.01.2018 05:33 21,9 C 5,9 C 5,9 C 66 % 19 % 1007 hPa 0,0 l/m 16,8 km/h (3 Bft) 0 min
04.01.2018 05:36 21,9 C 5,7 C 5,8 C 67 % 19 % 1007 hPa 0,0 l/m 15,2 km/h (3 Bft) 0 min
04.01.2018 05:39 21,9 C 5,7 C 5,9 C 67 % 19 % 1007 hPa 0,0 l/m 20,1 km/h (4 Bft) 0 min
04.01.2018 05:42 21,9 C 5,6 C 5,8 C 68 % 19 % 1007 hPa 0,0 l/m 18,1 km/h (3 Bft) 0 min
04.01.2018 05:45 21,9 C 5,6 C 5,8 C 68 % 19 % 1007 hPa 0,0 l/m 24,3 km/h (4 Bft) 0 min
04.01.2018 05:48 21,9 C 5,6 C 5,7 C 68 % 19 % 1007 hPa 0,0 l/m 16,9 km/h (3 Bft) 0 min
04.01.2018 05:51 21,9 C 5,6 C 5,7 C 68 % 19 % 1007 hPa 0,0 l/m 24,3 km/h (4 Bft) 0 min
04.01.2018 05:54 21,9 C 5,6 C 5,8 C 68 % 19 % 1007 hPa 0,0 l/m 23,3 km/h (4 Bft) 0 min
04.01.2018 05:57 21,9 C 5,6 C 5,8 C 67 % 19 % 1007 hPa 0,0 l/m 22,3 km/h (4 Bft) 0 min
04.01.2018 06:00 21,9 C 5,6 C 5,8 C 67 % 19 % 1007 hPa 0,0 l/m 24,1 km/h (4 Bft) 0 min
04.01.2018 06:03 21,9 C 5,7 C 5,8 C 67 % 19 % 1007 hPa 0,0 l/m 29,0 km/h (5 Bft) 0 min
04.01.2018 06:06 21,9 C 5,8 C 5,9 C 67 % 19 % 1007 hPa 0,0 l/m 32,4 km/h (5 Bft) 0 min
04.01.2018 06:09 21,9 C 5,8 C 5,9 C 67 % 19 % 1007 hPa 0,0 l/m 32,9 km/h (5 Bft) 0 min
04.01.2018 06:12 21,9 C 5,7 C 5,8 C 67 % 19 % 1007 hPa 0,0 l/m 24,3 km/h (4 Bft) 0 min
04.01.2018 06:15 21,9 C 5,7 C 5,9 C 67 % 19 % 1007 hPa 0,0 l/m 23,8 km/h (4 Bft) 0 min
04.01.2018 06:18 21,9 C 5,7 C 5,9 C 67 % 19 % 1007 hPa 0,0 l/m 30,1 km/h (5 Bft) 0 min
04.01.2018 06:21 21,9 C 5,7 C 5,9 C 67 % 19 % 1007 hPa 0,0 l/m 29,6 km/h (5 Bft) 0 min
04.01.2018 06:24 21,9 C 5,7 C 5,8 C 67 % 19 % 1007 hPa 0,0 l/m 16,3 km/h (3 Bft) 0 min
04.01.2018 06:27 21,9 C 5,8 C 5,9 C 67 % 19 % 1007 hPa 0,0 l/m 23,0 km/h (4 Bft) 0 min
04.01.2018 06:30 21,9 C 5,8 C 5,9 C 67 % 19 % 1007 hPa 0,0 l/m 19,3 km/h (3 Bft) 0 min
04.01.2018 06:33 21,9 C 5,8 C 5,9 C 67 % 19 % 1007 hPa 0,0 l/m 24,1 km/h (4 Bft) 0 min
04.01.2018 06:36 21,8 C 5,8 C 5,7 C 67 % 19 % 1007 hPa 0,0 l/m 22,0 km/h (4 Bft) 0 min
04.01.2018 06:39 21,8 C 5,6 C 5,7 C 68 % 19 % 1007 hPa 0,0 l/m 14,3 km/h (3 Bft) 0 min
04.01.2018 06:42 21,8 C 5,6 C 5,7 C 68 % 19 % 1007 hPa 0,0 l/m 17,0 km/h (3 Bft) 0 min
04.01.2018 06:45 21,8 C 5,6 C 5,7 C 68 % 19 % 1007 hPa 0,0 l/m 11,9 km/h (2 Bft) 0 min
04.01.2018 06:48 21,8 C 5,4 C 5,6 C 69 % 19 % 1007 hPa 0,0 l/m 16,1 km/h (3 Bft) 0 min
04.01.2018 06:51 21,9 C 5,3 C 5,6 C 69 % 19 % 1007 hPa 0,0 l/m 14,1 km/h (3 Bft) 0 min
04.01.2018 06:54 21,9 C 5,2 C 5,5 C 70 % 19 % 1007 hPa 0,0 l/m 11,0 km/h (2 Bft) 0 min
04.01.2018 06:57 21,9 C 5,2 C 5,5 C 70 % 19 % 1007 hPa 0,0 l/m 11,0 km/h (2 Bft) 0 min
04.01.2018 07:00 21,9 C 5,2 C 5,6 C 69 % 19 % 1007 hPa 0,0 l/m 12,2 km/h (2 Bft) 0 min
04.01.2018 07:03 21,9 C 5,2 C 5,6 C 69 % 19 % 1007 hPa 0,0 l/m 11,7 km/h (2 Bft) 0 min
04.01.2018 07:06 21,9 C 5,4 C 5,6 C 69 % 19 % 1007 hPa 0,0 l/m 11,7 km/h (2 Bft) 0 min
04.01.2018 07:09 21,8 C 5,4 C 5,6 C 69 % 19 % 1007 hPa 0,0 l/m 14,0 km/h (3 Bft) 0 min
04.01.2018 07:12 21,9 C 5,4 C 5,5 C 69 % 19 % 1007 hPa 0,0 l/m 10,6 km/h (2 Bft) 0 min
04.01.2018 07:15 21,9 C 5,3 C 5,6 C 69 % 19 % 1007 hPa 0,0 l/m 15,5 km/h (3 Bft) 0 min
04.01.2018 07:18 21,9 C 5,4 C 5,5 C 69 % 19 % 1007 hPa 0,0 l/m 12,4 km/h (3 Bft) 0 min
04.01.2018 07:21 21,9 C 5,4 C 5,5 C 69 % 19 % 1007 hPa 0,0 l/m 12,7 km/h (3 Bft) 0 min
04.01.2018 07:24 21,9 C 5,4 C 5,4 C 69 % 19 % 1007 hPa 0,0 l/m 7,8 km/h (2 Bft) 0 min
04.01.2018 07:27 21,9 C 5,4 C 5,4 C 69 % 19 % 1007 hPa 0,0 l/m 8,3 km/h (2 Bft) 0 min
04.01.2018 07:30 21,9 C 5,3 C 5,4 C 69 % 19 % 1007 hPa 0,0 l/m 6,1 km/h (2 Bft) 0 min
04.01.2018 07:33 21,9 C 5,2 C 5,3 C 69 % 19 % 1007 hPa 0,0 l/m 3,5 km/h (1 Bft) 0 min
04.01.2018 07:36 21,9 C 5,2 C 5,4 C 69 % 19 % 1007 hPa 0,0 l/m 3,5 km/h (1 Bft) 0 min
04.01.2018 07:39 21,9 C 5,2 C 5,5 C 70 % 19 % 1007 hPa 0,0 l/m 10,2 km/h (2 Bft) 0 min
04.01.2018 07:42 21,9 C 5,3 C 5,5 C 69 % 19 % 1007 hPa 0,0 l/m 12,4 km/h (3 Bft) 0 min
04.01.2018 07:45 21,9 C 5,4 C 5,3 C 69 % 19 % 1007 hPa 0,0 l/m 4,8 km/h (1 Bft) 0 min
04.01.2018 07:48 21,9 C 5,3 C 5,3 C 69 % 19 % 1007 hPa 0,0 l/m 0,3 km/h (0 Bft) 0 min
04.01.2018 07:51 21,9 C 5,2 C 5,3 C 70 % 19 % 1007 hPa 0,0 l/m 0,3 km/h (0 Bft) 0 min
04.01.2018 07:54 21,9 C 5,2 C 5,3 C 70 % 19 % 1007 hPa 0,0 l/m 0,8 km/h (0 Bft) 0 min
04.01.2018 07:57 21,9 C 5,2 C 5,2 C 70 % 19 % 1007 hPa 0,0 l/m 0,8 km/h (0 Bft) 0 min
04.01.2018 08:00 21,9 C 4,9 C 5,3 C 71 % 19 % 1007 hPa 0,0 l/m 2,2 km/h (1 Bft) 0 min
04.01.2018 08:03 21,9 C 4,9 C 5,3 C 71 % 19 % 1007 hPa 0,0 l/m 2,2 km/h (1 Bft) 0 min
04.01.2018 08:06 21,9 C 4,9 C 5,2 C 71 % 19 % 1007 hPa 0,0 l/m 0,3 km/h (0 Bft) 0 min
04.01.2018 08:09 21,9 C 5,1 C 5,2 C 70 % 19 % 1007 hPa 0,0 l/m 0,3 km/h (0 Bft) 0 min
04.01.2018 08:12 21,9 C 4,9 C 5,3 C 71 % 19 % 1007 hPa 0,0 l/m 0,7 km/h (0 Bft) 3 min
04.01.2018 08:15 21,9 C 4,9 C 5,3 C 70 % 19 % 1007 hPa 0,0 l/m 0,2 km/h (0 Bft) 3 min
04.01.2018 08:18 21,8 C 4,9 C 5,2 C 71 % 19 % 1007 hPa 0,0 l/m 0,0 km/h (0 Bft) 3 min
04.01.2018 08:21 21,8 C 4,8 C 5,1 C 71 % 19 % 1007 hPa 0,0 l/m 0,0 km/h (0 Bft) 3 min
04.01.2018 08:24 21,9 C 4,8 C 5,1 C 71 % 19 % 1007 hPa 0,0 l/m 0,0 km/h (0 Bft) 3 min
04.01.2018 08:27 21,9 C 4,8 C 5,1 C 71 % 19 % 1007 hPa 0,0 l/m 0,2 km/h (0 Bft) 3 min
04.01.2018 08:30 21,9 C 4,8 C 5,2 C 71 % 19 % 1006 hPa 0,0 l/m 0,1 km/h (0 Bft) 3 min
04.01.2018 08:33 21,9 C 4,7 C 5,1 C 71 % 19 % 1006 hPa 0,0 l/m 0,1 km/h (0 Bft) 3 min
04.01.2018 08:36 21,9 C 4,7 C 5,1 C 71 % 19 % 1006 hPa 0,0 l/m 1,0 km/h (0 Bft) 3 min
04.01.2018 08:39 21,9 C 4,7 C 5,1 C 71 % 19 % 1006 hPa 0,0 l/m 0,4 km/h (0 Bft) 3 min
04.01.2018 08:42 21,9 C 4,7 C 5,0 C 72 % 19 % 1006 hPa 0,0 l/m 0,4 km/h (0 Bft) 3 min
04.01.2018 08:45 21,9 C 4,6 C 5,0 C 72 % 19 % 1006 hPa 0,0 l/m 0,1 km/h (0 Bft) 3 min
04.01.2018 08:48 21,9 C 4,6 C 5,0 C 72 % 19 % 1006 hPa 0,0 l/m 0,1 km/h (0 Bft) 3 min
04.01.2018 08:51 21,9 C 4,6 C 5,1 C 72 % 19 % 1006 hPa 0,0 l/m 0,3 km/h (0 Bft) 3 min
04.01.2018 08:54 21,9 C 4,6 C 5,1 C 72 % 19 % 1006 hPa 0,0 l/m 2,3 km/h (1 Bft) 3 min
04.01.2018 08:57 21,9 C 4,7 C 5,1 C 72 % 19 % 1006 hPa 0,0 l/m 0,3 km/h (0 Bft) 3 min
04.01.2018 09:00 21,9 C 4,7 C 5,0 C 72 % 19 % 1006 hPa 0,0 l/m 0,1 km/h (0 Bft) 3 min
04.01.2018 09:03 21,9 C 4,7 C 5,0 C 72 % 19 % 1006 hPa 0,0 l/m 0,1 km/h (0 Bft) 3 min
04.01.2018 09:06 21,9 C 4,7 C 5,1 C 72 % 19 % 1006 hPa 0,0 l/m 0,1 km/h (0 Bft) 0 min
04.01.2018 09:09 21,9 C 4,7 C 5,0 C 72 % 19 % 1006 hPa 0,0 l/m 0,1 km/h (0 Bft) 0 min
04.01.2018 09:12 21,9 C 4,7 C 5,1 C 72 % 19 % 1006 hPa 0,0 l/m 0,4 km/h (0 Bft) 0 min
04.01.2018 09:15 21,9 C 4,8 C 5,0 C 72 % 19 % 1007 hPa 0,0 l/m 0,4 km/h (0 Bft) 0 min
04.01.2018 09:18 21,9 C 4,8 C 5,1 C 72 % 19 % 1007 hPa 0,0 l/m 2,7 km/h (1 Bft) 0 min
04.01.2018 09:21 21,9 C 4,9 C 5,2 C 71 % 19 % 1007 hPa 0,0 l/m 2,2 km/h (1 Bft) 0 min
04.01.2018 09:24 21,9 C 4,9 C 5,1 C 71 % 19 % 1007 hPa 0,0 l/m 0,1 km/h (0 Bft) 0 min
04.01.2018 09:27 21,9 C 4,9 C 5,2 C 72 % 19 % 1007 hPa 0,0 l/m 0,6 km/h (0 Bft) 0 min
04.01.2018 09:30 21,9 C 4,9 C 5,2 C 71 % 19 % 1007 hPa 0,0 l/m 2,8 km/h (1 Bft) 0 min
04.01.2018 09:33 21,9 C 4,9 C 5,2 C 71 % 19 % 1007 hPa 0,0 l/m 0,4 km/h (0 Bft) 0 min
04.01.2018 09:36 21,9 C 4,9 C 5,1 C 71 % 19 % 1007 hPa 0,0 l/m 0,1 km/h (0 Bft) 0 min
04.01.2018 09:39 21,9 C 4,9 C 5,1 C 72 % 19 % 1007 hPa 0,0 l/m 0,3 km/h (0 Bft) 0 min
04.01.2018 09:42 21,8 C 4,9 C 5,1 C 72 % 19 % 1007 hPa 0,0 l/m 0,5 km/h (0 Bft) 0 min
04.01.2018 09:45 21,9 C 5,2 C 5,3 C 71 % 19 % 1006 hPa 0,0 l/m 13,6 km/h (3 Bft) 0 min
04.01.2018 09:48 21,9 C 5,4 C 5,4 C 71 % 19 % 1007 hPa 0,0 l/m 9,2 km/h (2 Bft) 0 min
04.01.2018 09:51 21,9 C 5,6 C 5,3 C 71 % 19 % 1007 hPa 0,0 l/m 9,0 km/h (2 Bft) 0 min
04.01.2018 09:54 21,9 C 5,6 C 5,4 C 71 % 19 % 1007 hPa 0,0 l/m 11,3 km/h (2 Bft) 0 min
04.01.2018 09:57 21,9 C 5,6 C 5,5 C 71 % 19 % 1007 hPa 0,0 l/m 6,5 km/h (2 Bft) 0 min
04.01.2018 10:00 22,0 C 5,6 C 5,6 C 71 % 19 % 1007 hPa 0,0 l/m 6,7 km/h (2 Bft) 0 min
04.01.2018 10:03 21,9 C 5,8 C 5,5 C 71 % 19 % 1007 hPa 0,0 l/m 5,1 km/h (1 Bft) 0 min
04.01.2018 10:06 21,9 C 5,8 C 5,6 C 71 % 19 % 1007 hPa 0,0 l/m 10,8 km/h (2 Bft) 0 min
04.01.2018 10:09 22,0 C 5,9 C 5,6 C 70 % 19 % 1007 hPa 0,0 l/m 10,6 km/h (2 Bft) 0 min
04.01.2018 10:12 22,0 C 6,0 C 5,6 C 70 % 19 % 1007 hPa 0,0 l/m 11,1 km/h (2 Bft) 0 min
04.01.2018 10:15 22,0 C 6,0 C 5,6 C 70 % 19 % 1007 hPa 0,0 l/m 4,8 km/h (1 Bft) 0 min
04.01.2018 10:18 22,0 C 6,0 C 5,6 C 71 % 19 % 1007 hPa 0,0 l/m 1,1 km/h (1 Bft) 0 min
04.01.2018 10:21 22,0 C 6,0 C 5,6 C 71 % 19 % 1007 hPa 0,0 l/m 6,4 km/h (2 Bft) 0 min
04.01.2018 10:24 22,0 C 6,0 C 5,7 C 70 % 19 % 1007 hPa 0,0 l/m 10,0 km/h (2 Bft) 0 min
04.01.2018 10:27 22,0 C 6,0 C 5,7 C 71 % 19 % 1007 hPa 0,0 l/m 5,2 km/h (1 Bft) 0 min
04.01.2018 10:30 22,0 C 6,0 C 5,7 C 71 % 19 % 1007 hPa 0,0 l/m 9,5 km/h (2 Bft) 0 min
04.01.2018 10:33 22,0 C 6,0 C 5,7 C 71 % 19 % 1007 hPa 0,0 l/m 9,5 km/h (2 Bft) 0 min
04.01.2018 10:36 22,0 C 6,1 C 5,7 C 71 % 19 % 1007 hPa 0,0 l/m 6,7 km/h (2 Bft) 0 min
04.01.2018 10:39 22,0 C 6,1 C 5,8 C 71 % 19 % 1007 hPa 0,0 l/m 5,5 km/h (1 Bft) 0 min
04.01.2018 10:42 22,0 C 6,1 C 5,8 C 70 % 19 % 1007 hPa 0,0 l/m 4,0 km/h (1 Bft) 0 min
04.01.2018 10:45 22,0 C 6,2 C 5,7 C 70 % 19 % 1007 hPa 0,0 l/m 0,7 km/h (0 Bft) 0 min
04.01.2018 10:48 22,0 C 6,2 C 5,9 C 70 % 19 % 1007 hPa 0,0 l/m 6,7 km/h (2 Bft) 0 min
04.01.2018 10:51 22,0 C 6,3 C 5,8 C 71 % 19 % 1007 hPa 0,0 l/m 1,8 km/h (1 Bft) 0 min
04.01.2018 10:54 22,0 C 6,3 C 5,7 C 70 % 19 % 1007 hPa 0,0 l/m 5,1 km/h (1 Bft) 0 min
04.01.2018 10:57 22,0 C 6,3 C 5,8 C 71 % 19 % 1007 hPa 0,0 l/m 4,2 km/h (1 Bft) 0 min
04.01.2018 11:00 22,0 C 6,3 C 5,8 C 71 % 19 % 1007 hPa 0,0 l/m 4,5 km/h (1 Bft) 0 min
04.01.2018 11:03 22,0 C 6,3 C 5,9 C 70 % 19 % 1007 hPa 0,0 l/m 4,5 km/h (1 Bft) 0 min
04.01.2018 11:06 22,0 C 6,4 C 6,0 C 71 % 19 % 1007 hPa 0,0 l/m 8,7 km/h (2 Bft) 0 min
04.01.2018 11:09 22,0 C 6,4 C 6,1 C 71 % 19 % 1007 hPa 0,0 l/m 7,0 km/h (2 Bft) 0 min
04.01.2018 11:12 22,0 C 6,5 C 6,1 C 70 % 19 % 1007 hPa 0,0 l/m 13,8 km/h (3 Bft) 0 min
04.01.2018 11:15 22,0 C 6,5 C 6,1 C 69 % 19 % 1007 hPa 0,0 l/m 16,0 km/h (3 Bft) 0 min
04.01.2018 11:18 22,0 C 6,6 C 6,3 C 70 % 19 % 1007 hPa 0,0 l/m 16,0 km/h (3 Bft) 0 min
04.01.2018 11:21 22,0 C 6,6 C 6,2 C 71 % 19 % 1007 hPa 0,0 l/m 13,7 km/h (3 Bft) 0 min
04.01.2018 11:24 22,0 C 6,6 C 6,3 C 70 % 19 % 1007 hPa 0,0 l/m 13,3 km/h (3 Bft) 0 min
04.01.2018 11:27 22,0 C 6,6 C 6,3 C 70 % 19 % 1007 hPa 0,0 l/m 11,7 km/h (2 Bft) 0 min
04.01.2018 11:30 22,0 C 6,7 C 6,3 C 70 % 19 % 1007 hPa 0,0 l/m 13,2 km/h (3 Bft) 0 min
04.01.2018 11:33 22,1 C 6,7 C 6,3 C 70 % 19 % 1006 hPa 0,0 l/m 23,0 km/h (4 Bft) 0 min
04.01.2018 11:36 22,0 C 6,7 C 6,3 C 70 % 19 % 1006 hPa 0,0 l/m 9,8 km/h (2 Bft) 0 min
04.01.2018 11:39 22,1 C 6,7 C 6,5 C 69 % 19 % 1006 hPa 0,0 l/m 12,8 km/h (3 Bft) 0 min
04.01.2018 11:42 22,1 C 6,7 C 6,5 C 70 % 19 % 1006 hPa 0,0 l/m 13,4 km/h (3 Bft) 0 min
04.01.2018 11:45 22,1 C 6,8 C 6,5 C 70 % 19 % 1006 hPa 0,0 l/m 12,8 km/h (3 Bft) 0 min
04.01.2018 11:48 22,1 C 6,8 C 6,4 C 70 % 19 % 1006 hPa 0,0 l/m 9,8 km/h (2 Bft) 0 min
04.01.2018 11:51 22,1 C 6,9 C 6,5 C 70 % 19 % 1006 hPa 0,0 l/m 15,4 km/h (3 Bft) 0 min
04.01.2018 11:54 22,1 C 6,9 C 6,6 C 70 % 19 % 1006 hPa 0,0 l/m 12,6 km/h (3 Bft) 0 min
04.01.2018 11:57 22,1 C 7,0 C 6,6 C 70 % 19 % 1006 hPa 0,0 l/m 13,1 km/h (3 Bft) 0 min
04.01.2018 12:00 22,1 C 7,0 C 6,6 C 70 % 19 % 1006 hPa 0,0 l/m 13,4 km/h (3 Bft) 0 min
04.01.2018 12:03 22,1 C 7,0 C 6,6 C 70 % 19 % 1006 hPa 0,0 l/m 8,6 km/h (2 Bft) 0 min
04.01.2018 12:06 22,0 C 6,9 C 6,6 C 69 % 19 % 1006 hPa 0,0 l/m 18,5 km/h (3 Bft) 0 min
04.01.2018 12:09 22,0 C 6,9 C 6,6 C 69 % 19 % 1006 hPa 0,0 l/m 9,8 km/h (2 Bft) 0 min
04.01.2018 12:12 22,1 C 7,0 C 6,7 C 70 % 19 % 1006 hPa 0,0 l/m 10,8 km/h (2 Bft) 0 min
04.01.2018 12:15 22,1 C 7,0 C 6,6 C 70 % 19 % 1006 hPa 0,0 l/m 13,0 km/h (3 Bft) 0 min
04.01.2018 12:18 22,1 C 7,0 C 6,6 C 71 % 19 % 1006 hPa 0,0 l/m 3,9 km/h (1 Bft) 0 min
04.01.2018 12:21 22,1 C 7,0 C 6,6 C 71 % 19 % 1006 hPa 0,0 l/m 0,9 km/h (0 Bft) 0 min
04.01.2018 12:24 22,0 C 7,0 C 6,6 C 71 % 19 % 1006 hPa 0,0 l/m 0,9 km/h (0 Bft) 0 min
04.01.2018 12:27 22,0 C 7,0 C 6,6 C 71 % 19 % 1006 hPa 0,0 l/m 1,3 km/h (1 Bft) 0 min
04.01.2018 12:30 22,0 C 7,0 C 6,6 C 70 % 19 % 1006 hPa 0,0 l/m 0,7 km/h (0 Bft) 0 min
04.01.2018 12:33 22,1 C 7,0 C 6,6 C 71 % 19 % 1006 hPa 0,0 l/m 0,4 km/h (0 Bft) 0 min
04.01.2018 12:36 22,0 C 7,0 C 6,6 C 70 % 19 % 1006 hPa 0,0 l/m 2,4 km/h (1 Bft) 0 min
04.01.2018 12:39 22,0 C 7,1 C 6,7 C 71 % 19 % 1006 hPa 0,0 l/m 1,0 km/h (0 Bft) 0 min
04.01.2018 12:42 22,0 C 7,2 C 6,8 C 70 % 19 % 1006 hPa 0,0 l/m 0,3 km/h (0 Bft) 0 min
04.01.2018 12:45 22,1 C 7,2 C 6,8 C 70 % 19 % 1006 hPa 0,0 l/m 3,4 km/h (1 Bft) 0 min
04.01.2018 12:48 22,0 C 7,2 C 6,7 C 70 % 19 % 1006 hPa 0,0 l/m 4,0 km/h (1 Bft) 0 min
04.01.2018 12:51 22,1 C 7,2 C 6,8 C 71 % 19 % 1006 hPa 0,0 l/m 0,5 km/h (0 Bft) 0 min
04.01.2018 12:54 22,1 C 7,2 C 6,7 C 70 % 19 % 1006 hPa 0,0 l/m 2,8 km/h (1 Bft) 0 min
04.01.2018 12:57 22,0 C 7,2 C 6,7 C 70 % 19 % 1005 hPa 0,0 l/m 4,7 km/h (1 Bft) 0 min
04.01.2018 13:00 22,0 C 7,2 C 6,7 C 70 % 19 % 1005 hPa 0,0 l/m 0,6 km/h (0 Bft) 0 min
04.01.2018 13:03 22,0 C 7,2 C 6,7 C 71 % 19 % 1005 hPa 0,0 l/m 0,7 km/h (0 Bft) 0 min
04.01.2018 13:06 22,0 C 7,1 C 6,8 C 70 % 19 % 1005 hPa 0,0 l/m 0,3 km/h (0 Bft) 0 min
04.01.2018 13:09 22,0 C 7,1 C 6,9 C 70 % 19 % 1005 hPa 0,0 l/m 4,6 km/h (1 Bft) 0 min
04.01.2018 13:12 22,0 C 7,1 C 6,8 C 70 % 19 % 1005 hPa 0,0 l/m 3,8 km/h (1 Bft) 0 min
04.01.2018 13:15 22,0 C 7,1 C 6,7 C 70 % 19 % 1005 hPa 0,0 l/m 2,4 km/h (1 Bft) 0 min
04.01.2018 13:18 22,1 C 7,0 C 6,7 C 71 % 19 % 1005 hPa 0,0 l/m 0,7 km/h (0 Bft) 0 min
04.01.2018 13:21 22,0 C 7,0 C 6,8 C 71 % 19 % 1005 hPa 0,0 l/m 0,6 km/h (0 Bft) 0 min
04.01.2018 13:24 22,0 C 7,0 C 6,7 C 73 % 19 % 1005 hPa 0,0 l/m 3,4 km/h (1 Bft) 0 min
04.01.2018 13:27 22,0 C 7,0 C 6,6 C 73 % 19 % 1005 hPa 0,0 l/m 3,2 km/h (1 Bft) 0 min
04.01.2018 13:30 22,0 C 6,8 C 6,6 C 74 % 19 % 1005 hPa 0,0 l/m 3,2 km/h (1 Bft) 0 min
04.01.2018 13:33 22,1 C 6,7 C 6,6 C 76 % 19 % 1005 hPa 0,0 l/m 0,2 km/h (0 Bft) 0 min
04.01.2018 13:36 22,1 C 6,6 C 6,6 C 76 % 19 % 1005 hPa 0,0 l/m 0,2 km/h (0 Bft) 0 min
04.01.2018 13:39 22,1 C 6,6 C 6,5 C 77 % 19 % 1005 hPa 0,0 l/m 0,0 km/h (0 Bft) 0 min
04.01.2018 13:42 22,1 C 6,5 C 6,5 C 77 % 19 % 1005 hPa 0,0 l/m 0,0 km/h (0 Bft) 0 min
04.01.2018 13:45 22,0 C 6,5 C 6,5 C 77 % 19 % 1004 hPa 0,0 l/m 0,2 km/h (0 Bft) 0 min
04.01.2018 13:48 22,0 C 6,4 C 6,5 C 78 % 19 % 1005 hPa 0,0 l/m 0,5 km/h (0 Bft) 0 min
04.01.2018 13:51 22,1 C 6,4 C 6,5 C 78 % 19 % 1004 hPa 0,0 l/m 0,3 km/h (0 Bft) 0 min
04.01.2018 13:54 22,1 C 6,4 C 6,4 C 79 % 19 % 1004 hPa 0,3 l/m 0,3 km/h (0 Bft) 0 min
04.01.2018 13:57 22,1 C 6,3 C 6,4 C 79 % 19 % 1004 hPa 0,0 l/m 0,4 km/h (0 Bft) 0 min
04.01.2018 14:00 22,1 C 6,1 C 6,4 C 79 % 19 % 1004 hPa 0,0 l/m 0,5 km/h (0 Bft) 0 min
04.01.2018 14:03 22,1 C 6,1 C 6,3 C 79 % 19 % 1004 hPa 0,0 l/m 0,5 km/h (0 Bft) 0 min
04.01.2018 14:06 22,1 C 6,0 C 6,3 C 79 % 19 % 1004 hPa 0,0 l/m 2,7 km/h (1 Bft) 0 min
04.01.2018 14:09 22,0 C 6,0 C 6,3 C 79 % 19 % 1004 hPa 0,0 l/m 0,7 km/h (0 Bft) 0 min
04.01.2018 14:12 22,0 C 6,0 C 6,3 C 79 % 19 % 1004 hPa 0,3 l/m 0,7 km/h (0 Bft) 0 min
04.01.2018 14:15 22,0 C 6,0 C 6,3 C 79 % 19 % 1004 hPa 0,0 l/m 0,6 km/h (0 Bft) 0 min
04.01.2018 14:18 22,0 C 5,9 C 6,3 C 79 % 19 % 1004 hPa 0,0 l/m 0,6 km/h (0 Bft) 0 min
04.01.2018 14:21 22,0 C 5,9 C 6,2 C 78 % 19 % 1004 hPa 0,3 l/m 0,5 km/h (0 Bft) 0 min
04.01.2018 14:24 22,0 C 5,8 C 6,2 C 78 % 19 % 1004 hPa 0,0 l/m 0,3 km/h (0 Bft) 0 min
04.01.2018 14:27 22,0 C 5,8 C 6,2 C 78 % 19 % 1004 hPa 0,3 l/m 0,5 km/h (0 Bft) 0 min
04.01.2018 14:30 22,0 C 5,8 C 6,2 C 77 % 19 % 1004 hPa 0,0 l/m 0,2 km/h (0 Bft) 0 min
04.01.2018 14:33 22,0 C 5,8 C 6,1 C 77 % 19 % 1004 hPa 0,0 l/m 0,5 km/h (0 Bft) 0 min
04.01.2018 14:36 22,0 C 5,7 C 6,1 C 77 % 19 % 1004 hPa 0,0 l/m 4,3 km/h (1 Bft) 0 min
04.01.2018 14:39 22,0 C 5,7 C 6,1 C 77 % 19 % 1004 hPa 0,0 l/m 4,3 km/h (1 Bft) 0 min
04.01.2018 14:42 22,0 C 5,7 C 6,1 C 77 % 19 % 1004 hPa 0,3 l/m 4,1 km/h (1 Bft) 0 min
04.01.2018 14:45 22,0 C 5,6 C 6,1 C 77 % 19 % 1004 hPa 0,0 l/m 1,9 km/h (1 Bft) 0 min
04.01.2018 14:48 22,0 C 5,6 C 6,1 C 77 % 19 % 1004 hPa 0,0 l/m 1,0 km/h (0 Bft) 0 min
04.01.2018 14:51 22,0 C 5,6 C 6,0 C 77 % 19 % 1004 hPa 0,3 l/m 1,0 km/h (0 Bft) 0 min
04.01.2018 14:54 22,0 C 5,6 C 6,0 C 77 % 19 % 1004 hPa 0,0 l/m 1,1 km/h (1 Bft) 0 min
04.01.2018 14:57 22,0 C 5,6 C 6,0 C 77 % 19 % 1004 hPa 0,0 l/m 1,0 km/h (0 Bft) 0 min
04.01.2018 15:00 22,0 C 5,6 C 6,0 C 77 % 19 % 1004 hPa 0,0 l/m 4,3 km/h (1 Bft) 0 min
04.01.2018 15:03 22,0 C 5,6 C 6,0 C 77 % 19 % 1004 hPa 0,3 l/m 3,6 km/h (1 Bft) 0 min
04.01.2018 15:06 22,1 C 5,6 C 6,0 C 77 % 19 % 1004 hPa 0,0 l/m 2,5 km/h (1 Bft) 0 min
04.01.2018 15:09 22,1 C 5,6 C 6,0 C 77 % 19 % 1004 hPa 0,0 l/m 3,0 km/h (1 Bft) 0 min
04.01.2018 15:12 22,1 C 5,6 C 5,9 C 77 % 19 % 1004 hPa 0,3 l/m 3,0 km/h (1 Bft) 0 min
04.01.2018 15:15 22,1 C 5,6 C 5,9 C 77 % 19 % 1004 hPa 0,0 l/m 2,2 km/h (1 Bft) 0 min
04.01.2018 15:18 22,1 C 5,5 C 5,9 C 77 % 19 % 1004 hPa 0,0 l/m 0,4 km/h (0 Bft) 0 min
04.01.2018 15:21 22,1 C 5,5 C 5,9 C 77 % 19 % 1004 hPa 0,0 l/m 0,3 km/h (0 Bft) 3 min
04.01.2018 15:24 22,1 C 5,5 C 5,9 C 77 % 19 % 1004 hPa 0,0 l/m 2,1 km/h (1 Bft) 3 min
04.01.2018 15:27 22,1 C 5,5 C 5,8 C 77 % 19 % 1004 hPa 0,0 l/m 0,6 km/h (0 Bft) 3 min
04.01.2018 15:30 22,2 C 5,5 C 5,9 C 76 % 19 % 1004 hPa 0,0 l/m 0,7 km/h (0 Bft) 3 min
04.01.2018 15:33 22,2 C 5,4 C 5,8 C 76 % 19 % 1004 hPa 0,3 l/m 0,6 km/h (0 Bft) 3 min
04.01.2018 15:36 22,2 C 5,3 C 5,8 C 76 % 19 % 1004 hPa 0,0 l/m 0,3 km/h (0 Bft) 3 min
04.01.2018 15:39 22,2 C 5,3 C 5,8 C 76 % 19 % 1004 hPa 0,0 l/m 0,6 km/h (0 Bft) 3 min
04.01.2018 15:42 22,2 C 5,3 C 5,7 C 76 % 19 % 1004 hPa 0,0 l/m 2,5 km/h (1 Bft) 3 min
04.01.2018 15:45 22,3 C 5,3 C 5,7 C 76 % 19 % 1004 hPa 0,3 l/m 0,8 km/h (0 Bft) 3 min
04.01.2018 15:48 22,3 C 5,3 C 5,7 C 76 % 19 % 1004 hPa 0,0 l/m 0,8 km/h (0 Bft) 3 min
04.01.2018 15:51 22,2 C 5,2 C 5,7 C 76 % 19 % 1004 hPa 0,0 l/m 0,6 km/h (0 Bft) 3 min
04.01.2018 15:54 22,3 C 5,2 C 5,6 C 76 % 19 % 1004 hPa 0,0 l/m 0,6 km/h (0 Bft) 3 min
04.01.2018 15:57 22,2 C 5,2 C 5,6 C 77 % 19 % 1004 hPa 0,0 l/m 1,0 km/h (0 Bft) 3 min
04.01.2018 16:00 22,2 C 5,2 C 5,6 C 77 % 19 % 1004 hPa 0,3 l/m 0,4 km/h (0 Bft) 3 min
04.01.2018 16:03 22,2 C 5,2 C 5,6 C 77 % 19 % 1004 hPa 0,0 l/m 0,7 km/h (0 Bft) 3 min
04.01.2018 16:06 22,2 C 5,1 C 5,6 C 76 % 19 % 1004 hPa 0,0 l/m 3,6 km/h (1 Bft) 3 min
04.01.2018 16:09 21,8 C 5,2 C 5,6 C 76 % 19 % 1004 hPa 0,0 l/m 0,9 km/h (0 Bft) 3 min
04.01.2018 16:12 21,2 C 5,1 C 5,6 C 76 % 19 % 1004 hPa 0,0 l/m 4,1 km/h (1 Bft) 3 min
04.01.2018 16:15 20,7 C 4,9 C 5,5 C 76 % 19 % 1004 hPa 0,0 l/m 3,2 km/h (1 Bft) 0 min
04.01.2018 16:18 20,3 C 4,9 C 5,5 C 76 % 19 % 1004 hPa 0,0 l/m 3,2 km/h (1 Bft) 0 min
04.01.2018 16:21 20,3 C 4,9 C 5,6 C 76 % 19 % 1004 hPa 0,3 l/m 2,8 km/h (1 Bft) 0 min
04.01.2018 16:24 20,5 C 4,9 C 5,5 C 76 % 19 % 1004 hPa 0,0 l/m 0,7 km/h (0 Bft) 0 min
04.01.2018 16:27 20,8 C 4,8 C 5,5 C 76 % 19 % 1004 hPa 0,0 l/m 3,7 km/h (1 Bft) 0 min
04.01.2018 16:30 20,8 C 4,8 C 5,4 C 76 % 19 % 1004 hPa 0,0 l/m 0,7 km/h (0 Bft) 0 min
04.01.2018 16:33 21,1 C 4,8 C 5,4 C 76 % 19 % 1004 hPa 0,0 l/m 2,3 km/h (1 Bft) 0 min
04.01.2018 16:36 21,1 C 4,8 C 5,4 C 76 % 19 % 1004 hPa 0,0 l/m 0,3 km/h (0 Bft) 0 min
04.01.2018 16:39 21,4 C 4,7 C 5,5 C 76 % 19 % 1004 hPa 0,0 l/m 1,5 km/h (1 Bft) 0 min
04.01.2018 16:42 21,5 C 4,7 C 5,4 C 76 % 19 % 1004 hPa 0,0 l/m 2,5 km/h (1 Bft) 0 min
04.01.2018 16:45 21,6 C 4,7 C 5,4 C 76 % 19 % 1004 hPa 0,3 l/m 2,5 km/h (1 Bft) 0 min
04.01.2018 16:48 21,6 C 4,7 C 5,5 C 76 % 19 % 1004 hPa 0,0 l/m 0,1 km/h (0 Bft) 0 min
04.01.2018 16:51 21,6 C 4,7 C 5,4 C 75 % 19 % 1004 hPa 0,0 l/m 0,4 km/h (0 Bft) 0 min
04.01.2018 16:54 21,7 C 4,7 C 5,4 C 75 % 19 % 1004 hPa 0,0 l/m 0,3 km/h (0 Bft) 0 min
04.01.2018 16:57 21,7 C 4,6 C 5,4 C 75 % 19 % 1004 hPa 0,3 l/m 0,1 km/h (0 Bft) 0 min
04.01.2018 17:00 21,8 C 4,6 C 5,5 C 75 % 19 % 1004 hPa 0,0 l/m 0,0 km/h (0 Bft) 0 min
04.01.2018 17:03 21,8 C 4,6 C 5,4 C 75 % 19 % 1003 hPa 0,0 l/m 0,1 km/h (0 Bft) 0 min
04.01.2018 17:06 21,8 C 4,5 C 5,4 C 75 % 19 % 1003 hPa 0,3 l/m 0,1 km/h (0 Bft) 0 min
04.01.2018 17:09 21,8 C 4,5 C 5,4 C 75 % 19 % 1004 hPa 0,0 l/m 1,6 km/h (1 Bft) 0 min
04.01.2018 17:12 21,8 C 4,5 C 5,4 C 75 % 19 % 1004 hPa 0,3 l/m 0,6 km/h (0 Bft) 0 min
04.01.2018 17:15 21,8 C 4,4 C 5,4 C 75 % 19 % 1003 hPa 0,0 l/m 0,9 km/h (0 Bft) 0 min
04.01.2018 17:18 21,8 C 4,4 C 5,3 C 75 % 19 % 1003 hPa 0,3 l/m 3,1 km/h (1 Bft) 0 min
04.01.2018 17:21 21,8 C 4,3 C 5,3 C 75 % 19 % 1003 hPa 0,0 l/m 2,7 km/h (1 Bft) 0 min
04.01.2018 17:24 21,8 C 4,3 C 5,4 C 74 % 19 % 1003 hPa 0,3 l/m 3,4 km/h (1 Bft) 0 min
04.01.2018 17:27 21,8 C 4,3 C 5,3 C 74 % 19 % 1003 hPa 0,0 l/m 4,3 km/h (1 Bft) 0 min
04.01.2018 17:30 21,8 C 4,3 C 5,3 C 74 % 19 % 1003 hPa 0,3 l/m 1,5 km/h (1 Bft) 0 min
04.01.2018 17:33 21,8 C 4,3 C 5,3 C 74 % 19 % 1003 hPa 0,3 l/m 1,8 km/h (1 Bft) 0 min
04.01.2018 17:36 21,8 C 4,2 C 5,3 C 74 % 19 % 1003 hPa 0,0 l/m 0,1 km/h (0 Bft) 0 min
04.01.2018 17:39 21,9 C 4,2 C 5,3 C 74 % 19 % 1003 hPa 0,3 l/m 0,0 km/h (0 Bft) 0 min
04.01.2018 17:42 21,9 C 4,3 C 5,3 C 74 % 19 % 1003 hPa 0,0 l/m 0,0 km/h (0 Bft) 0 min
04.01.2018 17:45 21,8 C 4,2 C 5,2 C 74 % 19 % 1003 hPa 0,0 l/m 0,0 km/h (0 Bft) 0 min
04.01.2018 17:48 21,8 C 4,2 C 5,2 C 74 % 19 % 1003 hPa 0,3 l/m 0,0 km/h (0 Bft) 0 min
04.01.2018 17:51 21,9 C 4,2 C 5,3 C 74 % 19 % 1003 hPa 0,0 l/m 1,0 km/h (0 Bft) 0 min
04.01.2018 17:54 21,9 C 4,2 C 5,2 C 74 % 19 % 1003 hPa 0,3 l/m 0,0 km/h (0 Bft) 0 min
04.01.2018 17:57 21,9 C 4,2 C 5,2 C 74 % 19 % 1003 hPa 0,0 l/m 0,0 km/h (0 Bft) 0 min
04.01.2018 18:00 21,9 C 4,2 C 5,2 C 74 % 19 % 1003 hPa 0,0 l/m 1,0 km/h (0 Bft) 0 min
04.01.2018 18:03 21,9 C 4,2 C 5,2 C 74 % 19 % 1003 hPa 0,0 l/m 0,7 km/h (0 Bft) 0 min
04.01.2018 18:06 22,0 C 4,2 C 5,2 C 74 % 19 % 1003 hPa 0,3 l/m 3,7 km/h (1 Bft) 0 min
04.01.2018 18:09 22,0 C 4,2 C 5,2 C 74 % 19 % 1003 hPa 0,0 l/m 2,7 km/h (1 Bft) 0 min
04.01.2018 18:12 22,0 C 4,1 C 5,1 C 74 % 19 % 1003 hPa 0,0 l/m 0,1 km/h (0 Bft) 0 min
04.01.2018 18:15 22,0 C 4,1 C 5,2 C 74 % 19 % 1003 hPa 0,0 l/m 0,6 km/h (0 Bft) 0 min
04.01.2018 18:18 22,0 C 4,1 C 5,1 C 74 % 19 % 1003 hPa 0,3 l/m 3,6 km/h (1 Bft) 0 min
04.01.2018 18:21 22,0 C 4,1 C 5,1 C 74 % 19 % 1003 hPa 0,0 l/m 3,3 km/h (1 Bft) 0 min
04.01.2018 18:24 22,0 C 4,1 C 5,1 C 74 % 19 % 1002 hPa 0,0 l/m 3,1 km/h (1 Bft) 0 min
04.01.2018 18:27 22,0 C 4,1 C 5,1 C 74 % 19 % 1002 hPa 0,3 l/m 0,4 km/h (0 Bft) 0 min
04.01.2018 18:30 22,0 C 4,1 C 5,1 C 74 % 19 % 1002 hPa 0,0 l/m 0,7 km/h (0 Bft) 0 min
04.01.2018 18:33 22,0 C 4,1 C 5,1 C 74 % 19 % 1002 hPa 0,0 l/m 0,7 km/h (0 Bft) 0 min
04.01.2018 18:36 22,0 C 4,1 C 5,1 C 74 % 19 % 1002 hPa 0,0 l/m 0,6 km/h (0 Bft) 0 min
04.01.2018 18:39 22,0 C 4,1 C 5,1 C 74 % 19 % 1002 hPa 0,3 l/m 0,3 km/h (0 Bft) 0 min
04.01.2018 18:42 22,0 C 4,1 C 5,1 C 74 % 19 % 1002 hPa 0,0 l/m 0,6 km/h (0 Bft) 0 min
04.01.2018 18:45 21,9 C 4,1 C 5,1 C 74 % 19 % 1002 hPa 0,0 l/m 3,0 km/h (1 Bft) 0 min
04.01.2018 18:48 22,0 C 4,1 C 5,0 C 74 % 19 % 1002 hPa 0,0 l/m 4,3 km/h (1 Bft) 0 min
04.01.2018 18:51 21,9 C 4,1 C 5,0 C 74 % 19 % 1002 hPa 0,3 l/m 0,4 km/h (0 Bft) 0 min
04.01.2018 18:54 22,0 C 4,1 C 5,0 C 74 % 19 % 1002 hPa 0,0 l/m 4,3 km/h (1 Bft) 0 min
04.01.2018 18:57 21,9 C 4,1 C 5,0 C 74 % 19 % 1002 hPa 0,0 l/m 0,1 km/h (0 Bft) 0 min
04.01.2018 19:00 21,9 C 4,1 C 5,0 C 74 % 19 % 1002 hPa 0,3 l/m 0,0 km/h (0 Bft) 0 min
04.01.2018 19:03 21,9 C 4,1 C 4,9 C 74 % 19 % 1002 hPa 0,0 l/m 1,5 km/h (1 Bft) 0 min
04.01.2018 19:06 21,9 C 4,1 C 5,0 C 74 % 19 % 1002 hPa 0,3 l/m 3,0 km/h (1 Bft) 0 min
04.01.2018 19:09 21,9 C 4,1 C 5,0 C 74 % 19 % 1002 hPa 0,0 l/m 0,1 km/h (0 Bft) 0 min
04.01.2018 19:12 21,9 C 4,1 C 5,0 C 74 % 19 % 1002 hPa 0,3 l/m 0,1 km/h (0 Bft) 0 min
04.01.2018 19:15 21,9 C 4,1 C 5,0 C 74 % 19 % 1002 hPa 0,0 l/m 0,0 km/h (0 Bft) 0 min
04.01.2018 19:18 21,9 C 4,1 C 5,0 C 74 % 19 % 1002 hPa 0,0 l/m 0,1 km/h (0 Bft) 0 min
04.01.2018 19:21 21,9 C 4,1 C 5,0 C 74 % 19 % 1002 hPa 0,3 l/m 2,2 km/h (1 Bft) 0 min
04.01.2018 19:24 21,9 C 4,1 C 5,0 C 74 % 19 % 1002 hPa 0,0 l/m 6,3 km/h (2 Bft) 0 min
04.01.2018 19:27 21,9 C 4,1 C 5,0 C 74 % 19 % 1002 hPa 0,0 l/m 0,1 km/h (0 Bft) 0 min
04.01.2018 19:30 21,9 C 4,1 C 5,0 C 74 % 19 % 1002 hPa 0,3 l/m 0,0 km/h (0 Bft) 0 min
04.01.2018 19:33 21,9 C 4,1 C 5,0 C 74 % 19 % 1002 hPa 0,0 l/m 0,1 km/h (0 Bft) 0 min
04.01.2018 19:36 21,9 C 4,1 C 5,0 C 74 % 19 % 1002 hPa 0,3 l/m 0,2 km/h (0 Bft) 0 min
04.01.2018 19:39 21,9 C 4,1 C 5,0 C 74 % 19 % 1002 hPa 0,0 l/m 1,9 km/h (1 Bft) 0 min
04.01.2018 19:42 21,9 C 4,1 C 5,0 C 74 % 19 % 1002 hPa 0,0 l/m 4,0 km/h (1 Bft) 0 min
04.01.2018 19:45 21,9 C 4,1 C 5,0 C 74 % 19 % 1002 hPa 0,3 l/m 2,0 km/h (1 Bft) 0 min
04.01.2018 19:48 21,9 C 4,1 C 5,0 C 74 % 19 % 1002 hPa 0,0 l/m 0,1 km/h (0 Bft) 0 min
04.01.2018 19:51 21,9 C 4,1 C 5,0 C 74 % 19 % 1002 hPa 0,3 l/m 1,0 km/h (0 Bft) 0 min
04.01.2018 19:54 21,9 C 4,1 C 5,0 C 75 % 19 % 1002 hPa 0,0 l/m 3,7 km/h (1 Bft) 0 min
04.01.2018 19:57 21,9 C 4,2 C 5,0 C 75 % 19 % 1002 hPa 0,0 l/m 6,4 km/h (2 Bft) 0 min
04.01.2018 20:00 21,9 C 4,2 C 5,0 C 75 % 19 % 1002 hPa 0,7 l/m 3,0 km/h (1 Bft) 0 min
04.01.2018 20:03 21,9 C 4,1 C 5,0 C 75 % 19 % 1002 hPa 0,0 l/m 2,5 km/h (1 Bft) 0 min
04.01.2018 20:06 21,9 C 4,2 C 4,9 C 75 % 19 % 1002 hPa 0,3 l/m 7,8 km/h (2 Bft) 0 min
04.01.2018 20:09 21,9 C 4,2 C 5,0 C 75 % 19 % 1002 hPa 0,0 l/m 7,3 km/h (2 Bft) 0 min
04.01.2018 20:12 21,9 C 4,2 C 5,0 C 75 % 19 % 1002 hPa 0,3 l/m 5,2 km/h (1 Bft) 0 min
04.01.2018 20:15 21,9 C 4,2 C 5,0 C 75 % 19 % 1002 hPa 0,3 l/m 5,2 km/h (1 Bft) 0 min
04.01.2018 20:18 21,9 C 4,2 C 5,0 C 75 % 19 % 1002 hPa 0,0 l/m 4,8 km/h (1 Bft) 0 min
04.01.2018 20:21 21,9 C 4,2 C 5,0 C 75 % 19 % 1002 hPa 0,3 l/m 0,1 km/h (0 Bft) 0 min
04.01.2018 20:24 21,9 C 4,2 C 5,0 C 75 % 19 % 1002 hPa 0,3 l/m 0,0 km/h (0 Bft) 0 min
04.01.2018 20:27 21,9 C 4,2 C 5,0 C 75 % 19 % 1001 hPa 0,3 l/m 3,1 km/h (1 Bft) 0 min
04.01.2018 20:30 21,9 C 4,2 C 5,0 C 75 % 19 % 1001 hPa 0,3 l/m 3,5 km/h (1 Bft) 0 min
04.01.2018 20:33 21,9 C 4,2 C 5,0 C 75 % 19 % 1001 hPa 0,0 l/m 0,1 km/h (0 Bft) 0 min
04.01.2018 20:36 21,9 C 4,2 C 5,0 C 75 % 19 % 1001 hPa 0,3 l/m 2,2 km/h (1 Bft) 0 min
04.01.2018 20:39 21,9 C 4,2 C 5,0 C 75 % 19 % 1001 hPa 0,3 l/m 5,2 km/h (1 Bft) 0 min
04.01.2018 20:42 21,9 C 4,3 C 5,0 C 75 % 19 % 1001 hPa 0,3 l/m 6,7 km/h (2 Bft) 0 min
04.01.2018 20:45 21,9 C 4,3 C 5,0 C 75 % 19 % 1001 hPa 0,0 l/m 5,4 km/h (1 Bft) 0 min
04.01.2018 20:48 21,9 C 4,3 C 5,0 C 75 % 19 % 1001 hPa 0,3 l/m 6,1 km/h (2 Bft) 0 min
04.01.2018 20:51 21,9 C 4,3 C 5,0 C 75 % 19 % 1001 hPa 0,0 l/m 3,7 km/h (1 Bft) 0 min
04.01.2018 20:54 21,9 C 4,3 C 5,0 C 75 % 19 % 1001 hPa 0,0 l/m 4,9 km/h (1 Bft) 0 min
04.01.2018 20:57 21,9 C 4,3 C 5,0 C 75 % 19 % 1001 hPa 0,3 l/m 2,5 km/h (1 Bft) 0 min
04.01.2018 21:00 21,9 C 4,3 C 5,0 C 75 % 19 % 1001 hPa 0,0 l/m 0,0 km/h (0 Bft) 0 min
04.01.2018 21:03 21,9 C 4,3 C 5,0 C 75 % 19 % 1001 hPa 0,0 l/m 1,3 km/h (1 Bft) 0 min
04.01.2018 21:06 21,9 C 4,3 C 5,0 C 75 % 19 % 1001 hPa 0,3 l/m 1,3 km/h (1 Bft) 0 min
04.01.2018 21:09 21,9 C 4,3 C 5,0 C 75 % 19 % 1001 hPa 0,0 l/m 0,0 km/h (0 Bft) 0 min
04.01.2018 21:12 21,9 C 4,3 C 5,0 C 75 % 19 % 1001 hPa 0,0 l/m 0,0 km/h (0 Bft) 0 min
04.01.2018 21:15 21,9 C 4,3 C 5,0 C 75 % 19 % 1001 hPa 0,3 l/m 0,1 km/h (0 Bft) 0 min
04.01.2018 21:18 21,9 C 4,4 C 5,0 C 75 % 19 % 1001 hPa 0,0 l/m 0,0 km/h (0 Bft) 0 min
04.01.2018 21:21 21,8 C 4,4 C 5,0 C 75 % 19 % 1001 hPa 0,0 l/m 0,0 km/h (0 Bft) 0 min
04.01.2018 21:24 21,9 C 4,4 C 5,0 C 75 % 19 % 1001 hPa 0,0 l/m 0,0 km/h (0 Bft) 0 min
04.01.2018 21:27 21,9 C 4,4 C 5,0 C 75 % 19 % 1001 hPa 0,0 l/m 0,0 km/h (0 Bft) 0 min
04.01.2018 21:30 21,9 C 4,4 C 5,0 C 75 % 19 % 1001 hPa 0,3 l/m 0,3 km/h (0 Bft) 0 min
04.01.2018 21:33 21,9 C 4,4 C 5,0 C 75 % 19 % 1001 hPa 0,0 l/m 0,0 km/h (0 Bft) 0 min
04.01.2018 21:36 21,9 C 4,4 C 5,0 C 75 % 19 % 1001 hPa 0,0 l/m 0,0 km/h (0 Bft) 0 min
04.01.2018 21:39 21,8 C 4,4 C 5,0 C 75 % 19 % 1001 hPa 0,0 l/m 0,0 km/h (0 Bft) 0 min
04.01.2018 21:42 21,8 C 4,4 C 5,0 C 75 % 19 % 1001 hPa 0,0 l/m 0,0 km/h (0 Bft) 0 min
04.01.2018 21:45 21,8 C 4,3 C 5,0 C 75 % 19 % 1001 hPa 0,0 l/m 0,0 km/h (0 Bft) 0 min
04.01.2018 21:48 21,9 C 4,4 C 5,0 C 75 % 19 % 1001 hPa 0,0 l/m 0,0 km/h (0 Bft) 0 min
04.01.2018 21:51 21,9 C 4,4 C 5,0 C 75 % 19 % 1001 hPa 0,0 l/m 0,0 km/h (0 Bft) 0 min
04.01.2018 21:54 21,9 C 4,4 C 5,0 C 75 % 19 % 1001 hPa 0,0 l/m 0,0 km/h (0 Bft) 0 min
04.01.2018 21:57 21,8 C 4,4 C 5,0 C 75 % 19 % 1001 hPa 0,0 l/m 0,3 km/h (0 Bft) 0 min
04.01.2018 22:00 21,9 C 4,4 C 5,0 C 75 % 19 % 1001 hPa 0,0 l/m 0,0 km/h (0 Bft) 0 min
04.01.2018 22:03 21,9 C 4,4 C 5,0 C 75 % 19 % 1001 hPa 0,0 l/m 0,0 km/h (0 Bft) 0 min
04.01.2018 22:06 21,8 C 4,4 C 5,0 C 75 % 19 % 1001 hPa 0,0 l/m 0,1 km/h (0 Bft) 0 min
04.01.2018 22:09 21,8 C 4,4 C 5,0 C 75 % 19 % 1001 hPa 0,0 l/m 4,6 km/h (1 Bft) 0 min
04.01.2018 22:12 21,8 C 4,5 C 5,1 C 75 % 19 % 1001 hPa 0,0 l/m 0,1 km/h (0 Bft) 0 min
04.01.2018 22:15 21,8 C 4,5 C 5,1 C 75 % 19 % 1001 hPa 0,0 l/m 0,0 km/h (0 Bft) 0 min
04.01.2018 22:18 21,9 C 4,5 C 5,1 C 75 % 19 % 1001 hPa 0,3 l/m 1,3 km/h (1 Bft) 0 min
04.01.2018 22:21 21,8 C 4,6 C 5,1 C 75 % 19 % 1001 hPa 0,0 l/m 0,8 km/h (0 Bft) 0 min
04.01.2018 22:24 21,9 C 4,6 C 5,1 C 75 % 19 % 1001 hPa 0,0 l/m 0,8 km/h (0 Bft) 0 min
04.01.2018 22:27 21,9 C 4,6 C 5,2 C 75 % 19 % 1001 hPa 0,0 l/m 0,0 km/h (0 Bft) 0 min
04.01.2018 22:30 21,9 C 4,8 C 5,1 C 75 % 19 % 1001 hPa 0,0 l/m 4,4 km/h (1 Bft) 0 min
04.01.2018 22:33 21,9 C 4,7 C 5,1 C 75 % 19 % 1001 hPa 0,3 l/m 4,4 km/h (1 Bft) 0 min
04.01.2018 22:36 21,8 C 4,8 C 5,1 C 75 % 19 % 1001 hPa 0,0 l/m 1,7 km/h (1 Bft) 0 min
04.01.2018 22:39 21,8 C 4,7 C 5,1 C 75 % 19 % 1001 hPa 0,3 l/m 0,0 km/h (0 Bft) 0 min
04.01.2018 22:42 21,9 C 4,8 C 5,2 C 75 % 19 % 1001 hPa 0,0 l/m 0,0 km/h (0 Bft) 0 min
04.01.2018 22:45 21,8 C 4,9 C 5,1 C 76 % 19 % 1001 hPa 0,3 l/m 0,0 km/h (0 Bft) 0 min
04.01.2018 22:48 21,8 C 4,8 C 5,1 C 75 % 19 % 1001 hPa 0,0 l/m 0,0 km/h (0 Bft) 0 min
04.01.2018 22:51 21,8 C 4,8 C 5,1 C 75 % 19 % 1001 hPa 0,3 l/m 0,0 km/h (0 Bft) 0 min
04.01.2018 22:54 21,8 C 4,9 C 5,2 C 76 % 19 % 1001 hPa 0,0 l/m 0,0 km/h (0 Bft) 0 min
04.01.2018 22:57 21,8 C 4,9 C 5,2 C 76 % 19 % 1001 hPa 0,3 l/m 0,0 km/h (0 Bft) 0 min
04.01.2018 23:00 21,8 C 4,9 C 5,2 C 76 % 19 % 1001 hPa 0,0 l/m 0,0 km/h (0 Bft) 0 min
04.01.2018 23:03 21,8 C 4,9 C 5,2 C 76 % 19 % 1001 hPa 0,7 l/m 0,0 km/h (0 Bft) 0 min
04.01.2018 23:06 21,8 C 4,9 C 5,2 C 76 % 19 % 1001 hPa 0,3 l/m 0,1 km/h (0 Bft) 0 min
04.01.2018 23:09 21,8 C 4,9 C 5,2 C 76 % 19 % 1001 hPa 0,0 l/m 0,0 km/h (0 Bft) 0 min
04.01.2018 23:12 21,8 C 4,9 C 5,2 C 76 % 19 % 1001 hPa 0,3 l/m 0,0 km/h (0 Bft) 0 min
04.01.2018 23:15 21,8 C 4,9 C 5,2 C 76 % 19 % 1001 hPa 0,3 l/m 0,0 km/h (0 Bft) 0 min
04.01.2018 23:18 21,8 C 4,9 C 5,2 C 76 % 19 % 1001 hPa 0,3 l/m 0,0 km/h (0 Bft) 0 min
04.01.2018 23:21 21,8 C 4,9 C 5,2 C 76 % 19 % 1000 hPa 0,0 l/m 0,0 km/h (0 Bft) 0 min
04.01.2018 23:24 21,8 C 5,1 C 5,3 C 76 % 19 % 1000 hPa 0,3 l/m 0,0 km/h (0 Bft) 0 min
04.01.2018 23:27 21,8 C 4,9 C 5,2 C 76 % 19 % 1000 hPa 0,3 l/m 0,0 km/h (0 Bft) 0 min
04.01.2018 23:30 21,7 C 4,9 C 5,3 C 76 % 19 % 1000 hPa 0,0 l/m 0,2 km/h (0 Bft) 0 min
04.01.2018 23:33 21,8 C 4,9 C 5,3 C 76 % 19 % 1000 hPa 0,0 l/m 0,0 km/h (0 Bft) 0 min
04.01.2018 23:36 21,8 C 5,1 C 5,4 C 76 % 19 % 1001 hPa 0,0 l/m 0,3 km/h (0 Bft) 0 min
04.01.2018 23:39 21,7 C 5,1 C 5,3 C 76 % 19 % 1000 hPa 0,7 l/m 0,0 km/h (0 Bft) 0 min
04.01.2018 23:42 21,8 C 4,9 C 5,3 C 76 % 19 % 1000 hPa 0,3 l/m 0,0 km/h (0 Bft) 0 min
04.01.2018 23:45 21,7 C 4,9 C 5,3 C 76 % 19 % 1000 hPa 0,0 l/m 0,0 km/h (0 Bft) 0 min
04.01.2018 23:48 21,7 C 5,1 C 5,3 C 76 % 19 % 1000 hPa 0,0 l/m 0,0 km/h (0 Bft) 0 min
04.01.2018 23:51 21,7 C 5,1 C 5,3 C 76 % 19 % 1000 hPa 0,3 l/m 0,0 km/h (0 Bft) 0 min
04.01.2018 23:54 21,7 C 5,1 C 5,3 C 76 % 19 % 1000 hPa 0,0 l/m 0,0 km/h (0 Bft) 0 min
04.01.2018 23:57 21,7 C 5,1 C 5,4 C 76 % 19 % 1000 hPa 0,0 l/m 0,0 km/h (0 Bft) 0 min
_ Min-Zeit 16:18 18:12 19:03 00:18 - 23:21 - 08:18 -
Minimum _ 20,3 C 4,1 C 4,9 C 63 % - 1000 hPa - 0,0 km/h (0 Bft) -
_ Max-Zeit 15:45 12:42 13:09 13:54 00:00 00:00 20:00 00:27 08:12
Maximum _ 22,3 C 7,2 C 6,9 C 79 % 19 % 1007 hPa 0,7 l/m 39,6 km/h
N (6 Bft)
3 min
Durchschnitt _ 21,9 C 5,4 C 5,7 C 71 % #1:48 h 1005 hPa #24,3 l/m 9,3 km/h (2 Bft) #1:48 h